sensor_id;sensor_type;location;lat;lon;timestamp;noise_LAeq;noise_LA_min;noise_LA_max;noise_LA01;noise_LA95
68279;Laerm;55108;51.790;10.960;2023-04-01T00:00:14;33.51;26.45;46.57;;
68279;Laerm;55108;51.790;10.960;2023-04-01T00:02:40;53.41;26.46;70.29;;
68279;Laerm;55108;51.790;10.960;2023-04-01T00:05:05;32.19;26.52;56.16;;
68279;Laerm;55108;51.790;10.960;2023-04-01T00:07:30;57.35;27.61;74.21;;
68279;Laerm;55108;51.790;10.960;2023-04-01T00:09:56;35.93;26.81;50.96;;
68279;Laerm;55108;51.790;10.960;2023-04-01T00:12:21;29.68;26.34;35.93;;
68279;Laerm;55108;51.790;10.960;2023-04-01T00:14:46;31.97;26.00;41.41;;
68279;Laerm;55108;51.790;10.960;2023-04-01T00:17:12;55.40;26.19;75.87;;
68279;Laerm;55108;51.790;10.960;2023-04-01T00:19:37;31.08;26.98;40.16;;
68279;Laerm;55108;51.790;10.960;2023-04-01T00:22:02;30.88;26.48;39.05;;
68279;Laerm;55108;51.790;10.960;2023-04-01T00:24:27;57.66;26.20;76.77;;
68279;Laerm;55108;51.790;10.960;2023-04-01T00:26:53;55.86;26.06;73.26;;
68279;Laerm;55108;51.790;10.960;2023-04-01T00:29:18;27.52;25.90;32.46;;
68279;Laerm;55108;51.790;10.960;2023-04-01T00:31:43;30.76;26.08;41.78;;
68279;Laerm;55108;51.790;10.960;2023-04-01T00:34:08;27.23;25.91;30.87;;
68279;Laerm;55108;51.790;10.960;2023-04-01T00:36:33;31.24;26.01;39.98;;
68279;Laerm;55108;51.790;10.960;2023-04-01T00:38:59;27.34;26.01;32.13;;
68279;Laerm;55108;51.790;10.960;2023-04-01T00:41:24;32.57;26.37;45.08;;
68279;Laerm;55108;51.790;10.960;2023-04-01T00:43:51;31.82;27.13;37.82;;
68279;Laerm;55108;51.790;10.960;2023-04-01T00:46:16;59.44;27.10;80.70;;
68279;Laerm;55108;51.790;10.960;2023-04-01T00:48:42;63.17;27.71;82.45;;
68279;Laerm;55108;51.790;10.960;2023-04-01T00:51:13;49.17;27.50;66.66;;
68279;Laerm;55108;51.790;10.960;2023-04-01T00:53:42;56.32;28.05;72.69;;
68279;Laerm;55108;51.790;10.960;2023-04-01T00:56:18;53.99;26.80;75.49;;
68279;Laerm;55108;51.790;10.960;2023-04-01T00:58:46;53.03;27.12;76.07;;
68279;Laerm;55108;51.790;10.960;2023-04-01T01:01:13;58.06;26.94;76.33;;
68279;Laerm;55108;51.790;10.960;2023-04-01T01:03:38;28.00;26.36;32.28;;
68279;Laerm;55108;51.790;10.960;2023-04-01T01:08:39;50.38;26.40;66.93;;
68279;Laerm;55108;51.790;10.960;2023-04-01T01:11:08;29.15;26.27;36.05;;
68279;Laerm;55108;51.790;10.960;2023-04-01T01:13:36;31.38;26.14;38.22;;
68279;Laerm;55108;51.790;10.960;2023-04-01T01:16:06;27.41;26.11;29.69;;
68279;Laerm;55108;51.790;10.960;2023-04-01T01:18:35;27.48;25.91;33.97;;
68279;Laerm;55108;51.790;10.960;2023-04-01T01:21:12;52.14;26.61;71.13;;
68279;Laerm;55108;51.790;10.960;2023-04-01T01:26:23;28.51;26.27;35.88;;
68279;Laerm;55108;51.790;10.960;2023-04-01T01:31:26;27.35;25.89;32.51;;
68279;Laerm;55108;51.790;10.960;2023-04-01T01:34:11;49.79;26.17;67.90;;
68279;Laerm;55108;51.790;10.960;2023-04-01T01:36:40;27.48;26.04;29.20;;
68279;Laerm;55108;51.790;10.960;2023-04-01T01:39:07;28.21;26.14;34.13;;
68279;Laerm;55108;51.790;10.960;2023-04-01T01:41:34;31.47;26.06;44.10;;
68279;Laerm;55108;51.790;10.960;2023-04-01T01:44:00;27.33;25.87;29.18;;
68279;Laerm;55108;51.790;10.960;2023-04-01T01:46:27;35.98;26.27;51.35;;
68279;Laerm;55108;51.790;10.960;2023-04-01T01:48:53;30.62;26.36;39.71;;
68279;Laerm;55108;51.790;10.960;2023-04-01T01:51:20;32.91;26.73;41.11;;
68279;Laerm;55108;51.790;10.960;2023-04-01T01:53:46;30.43;26.11;40.84;;
68279;Laerm;55108;51.790;10.960;2023-04-01T01:56:11;34.79;26.13;52.86;;
68279;Laerm;55108;51.790;10.960;2023-04-01T01:58:51;34.42;26.20;48.93;;
68279;Laerm;55108;51.790;10.960;2023-04-01T02:01:18;62.91;26.02;83.53;;
68279;Laerm;55108;51.790;10.960;2023-04-01T02:03:45;29.52;26.19;41.66;;
68279;Laerm;55108;51.790;10.960;2023-04-01T02:06:12;57.53;26.76;76.36;;
68279;Laerm;55108;51.790;10.960;2023-04-01T02:08:52;42.81;26.10;58.34;;
68279;Laerm;55108;51.790;10.960;2023-04-01T02:11:20;60.02;26.21;79.75;;
68279;Laerm;55108;51.790;10.960;2023-04-01T02:13:58;67.26;26.42;91.41;;
68279;Laerm;55108;51.790;10.960;2023-04-01T02:16:32;36.20;26.50;54.65;;
68279;Laerm;55108;51.790;10.960;2023-04-01T02:18:59;58.17;26.74;76.94;;
68279;Laerm;55108;51.790;10.960;2023-04-01T02:21:27;32.34;26.13;44.28;;
68279;Laerm;55108;51.790;10.960;2023-04-01T02:23:54;54.30;26.66;72.04;;
68279;Laerm;55108;51.790;10.960;2023-04-01T02:26:21;53.50;26.28;70.71;;
68279;Laerm;55108;51.790;10.960;2023-04-01T02:28:48;27.47;26.13;32.98;;
68279;Laerm;55108;51.790;10.960;2023-04-01T02:31:14;56.12;26.00;74.65;;
68279;Laerm;55108;51.790;10.960;2023-04-01T02:33:40;31.28;26.27;39.78;;
68279;Laerm;55108;51.790;10.960;2023-04-01T02:36:05;57.28;26.24;75.53;;
68279;Laerm;55108;51.790;10.960;2023-04-01T02:38:30;27.83;26.01;32.68;;
68279;Laerm;55108;51.790;10.960;2023-04-01T02:40:59;31.67;26.22;43.20;;
68279;Laerm;55108;51.790;10.960;2023-04-01T02:43:26;52.27;26.23;69.85;;
68279;Laerm;55108;51.790;10.960;2023-04-01T02:45:51;54.09;28.85;71.28;;
68279;Laerm;55108;51.790;10.960;2023-04-01T02:48:16;30.95;26.54;48.72;;
68279;Laerm;55108;51.790;10.960;2023-04-01T02:50:42;29.57;26.66;37.05;;
68279;Laerm;55108;51.790;10.960;2023-04-01T02:53:07;51.86;26.54;70.37;;
68279;Laerm;55108;51.790;10.960;2023-04-01T02:55:32;31.76;26.59;49.59;;
68279;Laerm;55108;51.790;10.960;2023-04-01T02:57:58;28.17;26.20;36.91;;
68279;Laerm;55108;51.790;10.960;2023-04-01T03:00:23;56.61;26.98;76.96;;
68279;Laerm;55108;51.790;10.960;2023-04-01T03:02:48;58.47;26.65;75.90;;
68279;Laerm;55108;51.790;10.960;2023-04-01T03:05:14;55.65;26.70;74.54;;
68279;Laerm;55108;51.790;10.960;2023-04-01T03:07:39;33.78;27.28;42.89;;
68279;Laerm;55108;51.790;10.960;2023-04-01T03:10:05;57.58;27.04;76.83;;
68279;Laerm;55108;51.790;10.960;2023-04-01T03:12:30;49.37;28.56;69.47;;
68279;Laerm;55108;51.790;10.960;2023-04-01T03:14:55;59.60;29.29;75.36;;
68279;Laerm;55108;51.790;10.960;2023-04-01T03:17:20;42.62;27.71;57.21;;
68279;Laerm;55108;51.790;10.960;2023-04-01T03:19:46;57.36;27.84;76.99;;
68279;Laerm;55108;51.790;10.960;2023-04-01T03:22:11;53.57;27.22;70.04;;
68279;Laerm;55108;51.790;10.960;2023-04-01T03:24:36;61.00;28.25;76.79;;
68279;Laerm;55108;51.790;10.960;2023-04-01T03:27:01;64.40;33.61;77.27;;
68279;Laerm;55108;51.790;10.960;2023-04-01T03:29:26;59.56;29.06;77.05;;
68279;Laerm;55108;51.790;10.960;2023-04-01T03:31:51;59.84;28.39;73.48;;
68279;Laerm;55108;51.790;10.960;2023-04-01T03:34:16;52.43;29.80;68.34;;
68279;Laerm;55108;51.790;10.960;2023-04-01T03:36:41;40.85;27.83;58.11;;
68279;Laerm;55108;51.790;10.960;2023-04-01T03:39:07;50.50;29.75;67.26;;
68279;Laerm;55108;51.790;10.960;2023-04-01T03:41:32;61.48;30.12;78.03;;
68279;Laerm;55108;51.790;10.960;2023-04-01T03:43:57;58.67;31.27;71.64;;
68279;Laerm;55108;51.790;10.960;2023-04-01T03:46:22;63.13;28.06;80.59;;
68279;Laerm;55108;51.790;10.960;2023-04-01T03:48:47;64.77;32.42;79.13;;
68279;Laerm;55108;51.790;10.960;2023-04-01T03:51:13;57.71;31.07;71.70;;
68279;Laerm;55108;51.790;10.960;2023-04-01T03:53:38;62.57;30.51;75.93;;
68279;Laerm;55108;51.790;10.960;2023-04-01T03:56:06;58.62;29.30;73.33;;
68279;Laerm;55108;51.790;10.960;2023-04-01T03:58:31;51.87;30.59;66.04;;
68279;Laerm;55108;51.790;10.960;2023-04-01T04:00:56;56.26;30.82;71.97;;
68279;Laerm;55108;51.790;10.960;2023-04-01T04:03:22;52.46;30.88;67.36;;
68279;Laerm;55108;51.790;10.960;2023-04-01T04:05:48;59.95;32.73;74.18;;
68279;Laerm;55108;51.790;10.960;2023-04-01T04:08:13;59.77;31.20;79.18;;
68279;Laerm;55108;51.790;10.960;2023-04-01T04:10:38;58.48;32.69;76.88;;
68279;Laerm;55108;51.790;10.960;2023-04-01T04:13:04;57.60;32.46;72.99;;
68279;Laerm;55108;51.790;10.960;2023-04-01T04:15:30;58.62;32.34;74.34;;
68279;Laerm;55108;51.790;10.960;2023-04-01T04:17:55;56.52;32.51;74.98;;
68279;Laerm;55108;51.790;10.960;2023-04-01T04:20:20;57.97;34.41;74.84;;
68279;Laerm;55108;51.790;10.960;2023-04-01T04:22:45;54.62;33.82;70.93;;
68279;Laerm;55108;51.790;10.960;2023-04-01T04:25:10;49.39;33.20;63.74;;
68279;Laerm;55108;51.790;10.960;2023-04-01T04:27:35;58.84;33.65;74.93;;
68279;Laerm;55108;51.790;10.960;2023-04-01T04:30:00;46.99;34.14;59.55;;
68279;Laerm;55108;51.790;10.960;2023-04-01T04:32:25;58.24;32.74;75.40;;
68279;Laerm;55108;51.790;10.960;2023-04-01T04:34:51;60.68;34.47;76.40;;
68279;Laerm;55108;51.790;10.960;2023-04-01T04:37:16;59.47;33.51;77.76;;
68279;Laerm;55108;51.790;10.960;2023-04-01T04:39:41;46.42;32.08;57.85;;
68279;Laerm;55108;51.790;10.960;2023-04-01T04:42:06;59.22;33.92;76.05;;
68279;Laerm;55108;51.790;10.960;2023-04-01T04:44:31;60.27;32.86;72.89;;
68279;Laerm;55108;51.790;10.960;2023-04-01T04:46:56;63.84;35.59;80.07;;
68279;Laerm;55108;51.790;10.960;2023-04-01T04:49:21;58.99;34.29;77.50;;
68279;Laerm;55108;51.790;10.960;2023-04-01T04:51:46;61.19;30.88;78.96;;
68279;Laerm;55108;51.790;10.960;2023-04-01T04:54:12;61.55;31.40;75.34;;
68279;Laerm;55108;51.790;10.960;2023-04-01T04:56:37;63.05;35.70;75.30;;
68279;Laerm;55108;51.790;10.960;2023-04-01T04:59:02;63.22;37.21;77.34;;
68279;Laerm;55108;51.790;10.960;2023-04-01T05:01:27;59.83;35.40;74.75;;
68279;Laerm;55108;51.790;10.960;2023-04-01T05:03:52;62.38;34.34;77.72;;
68279;Laerm;55108;51.790;10.960;2023-04-01T05:06:18;58.75;33.62;75.38;;
68279;Laerm;55108;51.790;10.960;2023-04-01T05:08:43;59.85;34.44;74.17;;
68279;Laerm;55108;51.790;10.960;2023-04-01T05:11:09;61.72;31.89;76.63;;
68279;Laerm;55108;51.790;10.960;2023-04-01T05:13:36;63.66;37.78;77.89;;
68279;Laerm;55108;51.790;10.960;2023-04-01T05:16:01;60.76;34.03;76.40;;
68279;Laerm;55108;51.790;10.960;2023-04-01T05:18:26;59.42;34.08;73.61;;
68279;Laerm;55108;51.790;10.960;2023-04-01T05:20:52;63.63;37.30;77.79;;
68279;Laerm;55108;51.790;10.960;2023-04-01T05:23:18;62.94;35.83;78.72;;
68279;Laerm;55108;51.790;10.960;2023-04-01T05:25:45;63.23;34.04;77.22;;
68279;Laerm;55108;51.790;10.960;2023-04-01T05:28:11;63.23;35.83;77.64;;
68279;Laerm;55108;51.790;10.960;2023-04-01T05:30:36;63.64;38.09;76.22;;
68279;Laerm;55108;51.790;10.960;2023-04-01T05:33:01;58.57;35.56;74.74;;
68279;Laerm;55108;51.790;10.960;2023-04-01T05:35:26;62.18;34.27;75.38;;
68279;Laerm;55108;51.790;10.960;2023-04-01T05:37:51;63.61;32.48;78.64;;
68279;Laerm;55108;51.790;10.960;2023-04-01T05:40:16;63.80;34.73;80.19;;
68279;Laerm;55108;51.790;10.960;2023-04-01T05:42:41;63.20;34.18;75.81;;
68279;Laerm;55108;51.790;10.960;2023-04-01T05:45:07;64.25;37.80;77.46;;
68279;Laerm;55108;51.790;10.960;2023-04-01T05:47:32;63.06;37.88;81.83;;
68279;Laerm;55108;51.790;10.960;2023-04-01T05:49:57;66.09;42.59;77.86;;
68279;Laerm;55108;51.790;10.960;2023-04-01T05:52:23;62.96;37.02;76.79;;
68279;Laerm;55108;51.790;10.960;2023-04-01T05:54:49;60.05;36.15;71.61;;
68279;Laerm;55108;51.790;10.960;2023-04-01T05:57:14;67.03;39.63;79.00;;
68279;Laerm;55108;51.790;10.960;2023-04-01T05:59:39;65.58;40.35;78.70;;
68279;Laerm;55108;51.790;10.960;2023-04-01T06:02:04;60.55;32.80;72.76;;
68279;Laerm;55108;51.790;10.960;2023-04-01T06:04:34;61.92;37.17;74.92;;
68279;Laerm;55108;51.790;10.960;2023-04-01T06:07:05;63.13;39.13;74.79;;
68279;Laerm;55108;51.790;10.960;2023-04-01T06:09:30;61.85;33.89;78.00;;
68279;Laerm;55108;51.790;10.960;2023-04-01T06:12:38;64.03;35.14;79.04;;
68279;Laerm;55108;51.790;10.960;2023-04-01T06:14:53;65.01;36.58;79.39;;
68279;Laerm;55108;51.790;10.960;2023-04-01T06:19:57;64.78;37.37;79.89;;
68279;Laerm;55108;51.790;10.960;2023-04-01T06:22:43;62.34;35.46;75.80;;
68279;Laerm;55108;51.790;10.960;2023-04-01T06:25:16;63.53;36.27;76.59;;
68279;Laerm;55108;51.790;10.960;2023-04-01T06:27:50;64.89;36.14;78.56;;
68279;Laerm;55108;51.790;10.960;2023-04-01T06:38:02;64.90;38.88;76.73;;
68279;Laerm;55108;51.790;10.960;2023-04-01T06:45:29;64.48;39.82;75.90;;
68279;Laerm;55108;51.790;10.960;2023-04-01T06:50:40;66.82;40.60;79.93;;
68279;Laerm;55108;51.790;10.960;2023-04-01T06:53:21;66.71;41.00;77.97;;
68279;Laerm;55108;51.790;10.960;2023-04-01T06:58:21;66.66;41.23;77.18;;
68279;Laerm;55108;51.790;10.960;2023-04-01T07:00:48;67.17;46.66;78.92;;
68279;Laerm;55108;51.790;10.960;2023-04-01T07:05:39;66.19;43.13;78.36;;
68279;Laerm;55108;51.790;10.960;2023-04-01T07:08:06;68.69;42.77;79.58;;
68279;Laerm;55108;51.790;10.960;2023-04-01T07:10:45;65.72;44.77;79.48;;
68279;Laerm;55108;51.790;10.960;2023-04-01T07:14:13;66.15;44.09;77.80;;
68279;Laerm;55108;51.790;10.960;2023-04-01T07:16:11;65.13;40.68;74.60;;
68279;Laerm;55108;51.790;10.960;2023-04-01T07:18:42;66.15;46.74;80.19;;
68279;Laerm;55108;51.790;10.960;2023-04-01T07:21:10;65.63;42.89;77.56;;
68279;Laerm;55108;51.790;10.960;2023-04-01T07:23:40;65.74;41.37;76.44;;
68279;Laerm;55108;51.790;10.960;2023-04-01T07:26:40;66.07;46.11;76.51;;
68279;Laerm;55108;51.790;10.960;2023-04-01T07:28:58;67.80;49.50;76.62;;
68279;Laerm;55108;51.790;10.960;2023-04-01T07:34:01;68.13;43.48;80.07;;
68279;Laerm;55108;51.790;10.960;2023-04-01T07:36:36;65.92;41.08;76.08;;
68279;Laerm;55108;51.790;10.960;2023-04-01T07:39:06;65.75;43.01;76.51;;
68279;Laerm;55108;51.790;10.960;2023-04-01T07:44:05;66.12;41.00;77.03;;
68279;Laerm;55108;51.790;10.960;2023-04-01T07:46:41;67.67;41.80;79.52;;
68279;Laerm;55108;51.790;10.960;2023-04-01T07:49:14;68.35;48.76;81.39;;
68279;Laerm;55108;51.790;10.960;2023-04-01T07:51:45;64.93;45.07;76.78;;
68279;Laerm;55108;51.790;10.960;2023-04-01T07:54:19;66.21;40.56;79.63;;
68279;Laerm;55108;51.790;10.960;2023-04-01T07:56:50;67.39;43.44;78.25;;
68279;Laerm;55108;51.790;10.960;2023-04-01T07:59:22;67.35;47.64;77.33;;
68279;Laerm;55108;51.790;10.960;2023-04-01T08:07:09;68.29;43.51;79.62;;
68279;Laerm;55108;51.790;10.960;2023-04-01T08:09:41;68.36;44.14;78.67;;
68279;Laerm;55108;51.790;10.960;2023-04-01T08:14:39;65.84;44.46;76.03;;
68279;Laerm;55108;51.790;10.960;2023-04-01T08:17:15;66.63;43.95;79.15;;
68279;Laerm;55108;51.790;10.960;2023-04-01T08:22:19;66.58;44.68;79.01;;
68279;Laerm;55108;51.790;10.960;2023-04-01T08:24:46;66.87;46.43;78.18;;
68279;Laerm;55108;51.790;10.960;2023-04-01T08:27:59;68.55;51.02;77.21;;
68279;Laerm;55108;51.790;10.960;2023-04-01T08:30:03;66.95;46.92;76.32;;
68279;Laerm;55108;51.790;10.960;2023-04-01T08:32:32;67.32;44.31;80.14;;
68279;Laerm;55108;51.790;10.960;2023-04-01T08:35:14;68.17;47.06;76.59;;
68279;Laerm;55108;51.790;10.960;2023-04-01T08:37:40;66.92;41.63;78.44;;
68279;Laerm;55108;51.790;10.960;2023-04-01T08:40:22;65.98;40.48;77.23;;
68279;Laerm;55108;51.790;10.960;2023-04-01T08:45:21;67.34;47.67;76.13;;
68279;Laerm;55108;51.790;10.960;2023-04-01T08:50:36;66.89;43.40;77.16;;
68279;Laerm;55108;51.790;10.960;2023-04-01T08:53:06;66.93;44.03;78.51;;
68279;Laerm;55108;51.790;10.960;2023-04-01T09:00:53;66.98;42.89;77.11;;
68279;Laerm;55108;51.790;10.960;2023-04-01T09:03:22;66.49;40.03;76.37;;
68279;Laerm;55108;51.790;10.960;2023-04-01T09:14:04;69.03;45.79;82.40;;
68279;Laerm;55108;51.790;10.960;2023-04-01T09:21:42;64.67;42.07;76.25;;
68279;Laerm;55108;51.790;10.960;2023-04-01T09:26:53;67.35;44.05;78.02;;
68279;Laerm;55108;51.790;10.960;2023-04-01T09:32:16;66.62;41.24;78.60;;
68279;Laerm;55108;51.790;10.960;2023-04-01T09:34:52;65.95;44.30;77.11;;
68279;Laerm;55108;51.790;10.960;2023-04-01T09:39:54;65.76;42.72;79.69;;
68279;Laerm;55108;51.790;10.960;2023-04-01T09:42:44;66.61;45.05;75.27;;
68279;Laerm;55108;51.790;10.960;2023-04-01T09:45:32;64.87;42.37;75.08;;
68279;Laerm;55108;51.790;10.960;2023-04-01T09:48:13;67.35;41.98;77.92;;
68279;Laerm;55108;51.790;10.960;2023-04-01T09:50:48;68.31;38.47;78.90;;
68279;Laerm;55108;51.790;10.960;2023-04-01T09:56:19;67.28;45.35;77.74;;
68279;Laerm;55108;51.790;10.960;2023-04-01T10:01:39;67.11;43.67;78.52;;
68279;Laerm;55108;51.790;10.960;2023-04-01T10:04:25;67.30;42.48;79.16;;
68279;Laerm;55108;51.790;10.960;2023-04-01T10:06:56;68.18;40.01;77.57;;
68279;Laerm;55108;51.790;10.960;2023-04-01T10:12:19;65.73;44.59;76.34;;
68279;Laerm;55108;51.790;10.960;2023-04-01T10:17:29;66.70;42.19;80.18;;
68279;Laerm;55108;51.790;10.960;2023-04-01T10:20:08;68.42;45.76;77.44;;
68279;Laerm;55108;51.790;10.960;2023-04-01T10:27:49;66.74;46.39;79.96;;
68279;Laerm;55108;51.790;10.960;2023-04-01T10:33:22;65.54;39.02;81.98;;
68279;Laerm;55108;51.790;10.960;2023-04-01T10:41:14;67.81;46.63;76.69;;
68279;Laerm;55108;51.790;10.960;2023-04-01T10:46:35;68.17;35.64;83.34;;
68279;Laerm;55108;51.790;10.960;2023-04-01T10:51:44;65.49;38.91;76.85;;
68279;Laerm;55108;51.790;10.960;2023-04-01T10:56:59;66.55;35.98;79.16;;
68279;Laerm;55108;51.790;10.960;2023-04-01T11:09:44;68.18;48.31;77.14;;
68279;Laerm;55108;51.790;10.960;2023-04-01T11:28:07;67.09;40.76;79.33;;
68279;Laerm;55108;51.790;10.960;2023-04-01T11:36:11;64.81;41.82;78.08;;
68279;Laerm;55108;51.790;10.960;2023-04-01T11:41:45;65.62;42.97;77.67;;
68279;Laerm;55108;51.790;10.960;2023-04-01T11:52:07;65.71;38.87;77.72;;
68279;Laerm;55108;51.790;10.960;2023-04-01T11:59:48;68.26;48.89;79.85;;
68279;Laerm;55108;51.790;10.960;2023-04-01T12:02:37;68.47;47.11;78.10;;
68279;Laerm;55108;51.790;10.960;2023-04-01T12:07:53;65.68;43.53;76.59;;
68279;Laerm;55108;51.790;10.960;2023-04-01T12:10:25;67.75;43.48;79.17;;
68279;Laerm;55108;51.790;10.960;2023-04-01T12:12:59;65.36;41.94;78.98;;
68279;Laerm;55108;51.790;10.960;2023-04-01T12:18:15;67.59;47.54;78.10;;
68279;Laerm;55108;51.790;10.960;2023-04-01T12:20:49;64.97;37.69;76.51;;
68279;Laerm;55108;51.790;10.960;2023-04-01T12:23:19;67.69;43.47;76.68;;
68279;Laerm;55108;51.790;10.960;2023-04-01T12:25:56;66.56;39.19;79.00;;
68279;Laerm;55108;51.790;10.960;2023-04-01T12:28:29;65.98;42.92;77.02;;
68279;Laerm;55108;51.790;10.960;2023-04-01T12:33:51;67.61;42.57;77.51;;
68279;Laerm;55108;51.790;10.960;2023-04-01T12:39:12;67.99;43.97;79.80;;
68279;Laerm;55108;51.790;10.960;2023-04-01T12:52:13;67.11;47.98;78.78;;
68279;Laerm;55108;51.790;10.960;2023-04-01T12:54:48;66.93;43.06;77.61;;
68279;Laerm;55108;51.790;10.960;2023-04-01T13:07:48;67.88;41.04;78.06;;
68279;Laerm;55108;51.790;10.960;2023-04-01T13:12:54;67.41;39.62;78.10;;
68279;Laerm;55108;51.790;10.960;2023-04-01T13:15:26;66.97;41.42;77.21;;
68279;Laerm;55108;51.790;10.960;2023-04-01T13:17:56;66.44;41.26;80.43;;
68279;Laerm;55108;51.790;10.960;2023-04-01T13:25:39;66.22;47.45;77.68;;
68279;Laerm;55108;51.790;10.960;2023-04-01T13:28:13;65.06;44.00;77.05;;
68279;Laerm;55108;51.790;10.960;2023-04-01T13:33:26;67.37;50.32;79.51;;
68279;Laerm;55108;51.790;10.960;2023-04-01T13:36:01;68.39;46.78;77.83;;
68279;Laerm;55108;51.790;10.960;2023-04-01T13:41:15;69.02;45.77;81.66;;
68279;Laerm;55108;51.790;10.960;2023-04-01T13:44:07;72.02;47.24;84.78;;
68279;Laerm;55108;51.790;10.960;2023-04-01T13:46:44;69.57;47.95;79.84;;
68279;Laerm;55108;51.790;10.960;2023-04-01T13:51:43;68.90;49.30;77.96;;
68279;Laerm;55108;51.790;10.960;2023-04-01T13:59:39;68.61;40.87;79.07;;
68279;Laerm;55108;51.790;10.960;2023-04-01T14:02:14;67.05;36.06;80.73;;
68279;Laerm;55108;51.790;10.960;2023-04-01T14:07:14;66.48;43.44;76.80;;
68279;Laerm;55108;51.790;10.960;2023-04-01T14:14:48;65.94;35.43;80.64;;
68279;Laerm;55108;51.790;10.960;2023-04-01T14:36:29;66.43;38.51;77.16;;
68279;Laerm;55108;51.790;10.960;2023-04-01T14:41:48;67.11;43.63;77.71;;
68279;Laerm;55108;51.790;10.960;2023-04-01T14:49:30;69.11;49.88;80.38;;
68279;Laerm;55108;51.790;10.960;2023-04-01T14:52:04;67.44;48.34;78.30;;
68279;Laerm;55108;51.790;10.960;2023-04-01T14:54:31;66.22;44.72;77.84;;
68279;Laerm;55108;51.790;10.960;2023-04-01T14:57:11;68.94;52.16;79.33;;
68279;Laerm;55108;51.790;10.960;2023-04-01T14:59:41;68.82;46.93;78.58;;
68279;Laerm;55108;51.790;10.960;2023-04-01T15:04:58;68.93;44.86;79.08;;
68279;Laerm;55108;51.790;10.960;2023-04-01T15:07:45;67.60;38.54;80.03;;
68279;Laerm;55108;51.790;10.960;2023-04-01T15:10:30;67.90;43.90;78.40;;
68279;Laerm;55108;51.790;10.960;2023-04-01T15:13:13;69.75;49.75;77.90;;
68279;Laerm;55108;51.790;10.960;2023-04-01T15:18:34;67.89;41.62;79.13;;
68279;Laerm;55108;51.790;10.960;2023-04-01T15:21:24;64.31;40.60;78.62;;
68279;Laerm;55108;51.790;10.960;2023-04-01T15:26:34;69.34;47.10;80.98;;
68279;Laerm;55108;51.790;10.960;2023-04-01T15:36:43;69.62;52.32;82.40;;
68279;Laerm;55108;51.790;10.960;2023-04-01T15:39:12;69.75;48.44;80.05;;
68279;Laerm;55108;51.790;10.960;2023-04-01T15:46:52;68.66;47.32;80.22;;
68279;Laerm;55108;51.790;10.960;2023-04-01T15:49:25;70.13;47.65;82.02;;
68279;Laerm;55108;51.790;10.960;2023-04-01T15:57:35;71.25;47.10;81.24;;
68279;Laerm;55108;51.790;10.960;2023-04-01T16:13:44;69.79;48.60;83.78;;
68279;Laerm;55108;51.790;10.960;2023-04-01T16:16:16;70.18;48.16;81.91;;
68279;Laerm;55108;51.790;10.960;2023-04-01T16:24:17;70.48;47.09;84.80;;
68279;Laerm;55108;51.790;10.960;2023-04-01T16:26:48;71.15;47.46;82.67;;
68279;Laerm;55108;51.790;10.960;2023-04-01T16:31:46;67.72;45.50;82.37;;
68279;Laerm;55108;51.790;10.960;2023-04-01T16:34:30;71.11;45.88;82.39;;
68279;Laerm;55108;51.790;10.960;2023-04-01T16:37:19;71.70;49.85;83.19;;
68279;Laerm;55108;51.790;10.960;2023-04-01T16:42:35;65.30;45.19;81.75;;
68279;Laerm;55108;51.790;10.960;2023-04-01T16:47:40;71.02;49.97;83.83;;
68279;Laerm;55108;51.790;10.960;2023-04-01T16:52:53;69.92;47.72;84.46;;
68279;Laerm;55108;51.790;10.960;2023-04-01T16:55:24;68.39;45.40;81.17;;
68279;Laerm;55108;51.790;10.960;2023-04-01T16:57:58;67.06;44.29;80.82;;
68279;Laerm;55108;51.790;10.960;2023-04-01T17:00:30;68.06;44.24;79.14;;
68279;Laerm;55108;51.790;10.960;2023-04-01T17:05:48;68.14;46.19;80.95;;
68279;Laerm;55108;51.790;10.960;2023-04-01T17:08:21;69.55;46.39;80.99;;
68279;Laerm;55108;51.790;10.960;2023-04-01T17:10:53;68.63;48.17;82.14;;
68279;Laerm;55108;51.790;10.960;2023-04-01T17:13:31;66.96;46.80;79.29;;
68279;Laerm;55108;51.790;10.960;2023-04-01T17:16:17;68.48;45.05;83.44;;
68279;Laerm;55108;51.790;10.960;2023-04-01T17:18:59;68.85;45.15;79.46;;
68279;Laerm;55108;51.790;10.960;2023-04-01T17:26:42;66.28;46.04;78.50;;
68279;Laerm;55108;51.790;10.960;2023-04-01T17:29:33;66.83;43.04;80.08;;
68279;Laerm;55108;51.790;10.960;2023-04-01T17:32:07;64.75;40.77;83.47;;
68279;Laerm;55108;51.790;10.960;2023-04-01T17:44:59;51.60;37.11;68.43;;
68279;Laerm;55108;51.790;10.960;2023-04-01T17:50:13;64.26;39.09;79.14;;
68279;Laerm;55108;51.790;10.960;2023-04-01T17:52:42;65.58;39.52;81.28;;
68279;Laerm;55108;51.790;10.960;2023-04-01T17:55:26;66.69;39.11;79.88;;
68279;Laerm;55108;51.790;10.960;2023-04-01T17:58:03;60.43;37.82;74.96;;
68279;Laerm;55108;51.790;10.960;2023-04-01T18:00:51;65.58;39.38;78.59;;
68279;Laerm;55108;51.790;10.960;2023-04-01T18:03:36;65.49;40.02;81.28;;
68279;Laerm;55108;51.790;10.960;2023-04-01T18:08:53;63.03;39.59;80.67;;
68279;Laerm;55108;51.790;10.960;2023-04-01T18:16:37;63.39;40.66;79.65;;
68279;Laerm;55108;51.790;10.960;2023-04-01T18:21:45;65.23;40.53;79.01;;
68279;Laerm;55108;51.790;10.960;2023-04-01T18:24:14;65.27;40.78;78.55;;
68279;Laerm;55108;51.790;10.960;2023-04-01T18:26:46;67.41;41.73;81.56;;
68279;Laerm;55108;51.790;10.960;2023-04-01T18:34:43;64.42;41.29;78.82;;
68279;Laerm;55108;51.790;10.960;2023-04-01T18:37:16;64.72;40.32;77.77;;
68279;Laerm;55108;51.790;10.960;2023-04-01T18:39:46;66.05;43.09;80.13;;
68279;Laerm;55108;51.790;10.960;2023-04-01T18:44:46;61.99;40.55;76.58;;
68279;Laerm;55108;51.790;10.960;2023-04-01T18:52:22;60.55;39.94;75.81;;
68279;Laerm;55108;51.790;10.960;2023-04-01T18:57:25;66.01;39.68;83.37;;
68279;Laerm;55108;51.790;10.960;2023-04-01T18:59:56;60.88;38.63;78.21;;
68279;Laerm;55108;51.790;10.960;2023-04-01T19:02:33;64.54;42.57;78.53;;
68279;Laerm;55108;51.790;10.960;2023-04-01T19:05:17;65.21;39.97;82.97;;
68279;Laerm;55108;51.790;10.960;2023-04-01T19:07:45;63.95;40.10;79.40;;
68279;Laerm;55108;51.790;10.960;2023-04-01T19:10:16;63.98;38.43;79.00;;
68279;Laerm;55108;51.790;10.960;2023-04-01T19:12:45;65.41;40.43;80.04;;
68279;Laerm;55108;51.790;10.960;2023-04-01T19:20:45;66.77;41.29;78.63;;
68279;Laerm;55108;51.790;10.960;2023-04-01T19:23:31;62.52;41.75;77.60;;
68279;Laerm;55108;51.790;10.960;2023-04-01T19:26:00;66.02;41.28;83.12;;
68279;Laerm;55108;51.790;10.960;2023-04-01T19:30:57;68.04;45.68;82.70;;
68279;Laerm;55108;51.790;10.960;2023-04-01T19:33:29;65.43;45.23;83.10;;
68279;Laerm;55108;51.790;10.960;2023-04-01T19:42:18;65.61;46.41;80.89;;
68279;Laerm;55108;51.790;10.960;2023-04-01T19:46:51;66.81;45.73;84.55;;
68279;Laerm;55108;51.790;10.960;2023-04-01T19:49:32;63.62;45.61;79.69;;
68279;Laerm;55108;51.790;10.960;2023-04-01T19:55:00;69.34;46.27;82.93;;
68279;Laerm;55108;51.790;10.960;2023-04-01T19:57:38;64.41;45.43;80.74;;